Time;durP1;ratioP1;P1;durP2;ratioP2;P2;SDS_P1;SDS_P2;PMS_P1;PMS_P2;Temp;Humidity;BMP_temperature;BMP_pressure;BME280_temperature;BME280_humidity;BME280_pressure;Samples;Min_cycle;Max_cycle;Signal;HPM_P1;HPM_P2
2021/06/24 00:00:06;;;;;;;30.25;13.38;;;;;;;22.37;73.27;100147.34;5133528;27;20039;-73
2021/06/24 00:02:34;;;;;;;29.35;13.15;;;;;;;22.33;73.68;100141.53;5114619;28;20078;-73
2021/06/24 00:05:00;;;;;;;26.73;12.52;;;;;;;22.28;74.04;100152.00;5133581;27;20126;-73
2021/06/24 00:07:26;;;;;;;27.10;13.52;;;;;;;22.24;74.46;100148.00;5132867;27;20042;-74
2021/06/24 00:09:52;;;;;;;42.92;13.98;;;;;;;22.19;74.77;100150.41;5133571;27;20456;-72
2021/06/24 00:12:19;;;;;;;33.72;12.98;;;;;;;22.17;75.07;100152.44;5132891;27;20071;-73
2021/06/24 00:14:45;;;;;;;26.70;14.00;;;;;;;22.10;74.90;100152.34;5133097;27;20412;-73
2021/06/24 00:17:11;;;;;;;31.60;13.70;;;;;;;22.07;75.34;100152.69;5114672;28;20043;-73
2021/06/24 00:19:37;;;;;;;29.58;14.48;;;;;;;22.05;75.22;100152.06;5132997;27;20049;-73
2021/06/24 00:22:03;;;;;;;31.67;13.63;;;;;;;22.02;75.60;100150.56;5132707;27;20051;-72
2021/06/24 00:24:28;;;;;;;33.83;13.57;;;;;;;22.02;75.63;100150.56;5132652;27;20046;-72
2021/06/24 00:26:54;;;;;;;33.50;14.07;;;;;;;22.00;75.78;100147.19;5132968;28;20506;-72
2021/06/24 00:29:20;;;;;;;25.35;13.65;;;;;;;21.98;75.61;100160.00;5131026;28;20088;-73
2021/06/24 00:31:46;;;;;;;30.77;14.32;;;;;;;22.00;75.43;100157.97;5132261;27;20400;-73
2021/06/24 00:34:12;;;;;;;27.27;12.60;;;;;;;22.02;75.35;100160.47;5113660;28;20031;-73
2021/06/24 00:36:38;;;;;;;28.92;12.90;;;;;;;22.02;75.37;100157.78;5132279;28;20464;-73
2021/06/24 00:39:04;;;;;;;30.98;13.02;;;;;;;22.04;75.30;100170.06;5132228;27;20127;-73
2021/06/24 00:41:30;;;;;;;28.95;12.98;;;;;;;22.08;75.46;100171.38;5132494;28;20032;-73
2021/06/24 00:43:59;;;;;;;26.85;12.93;;;;;;;22.09;75.91;100175.75;5118862;28;20055;-73
2021/06/24 00:46:25;;;;;;;25.13;13.40;;;;;;;22.12;75.35;100178.06;5114277;28;20487;-73
2021/06/24 00:48:58;;;;;;;29.25;12.93;;;;;;;22.17;75.33;100174.00;5131280;28;20498;-74
2021/06/24 00:51:25;;;;;;;27.27;13.23;;;;;;;22.16;75.30;100175.84;5131185;28;20507;-75
2021/06/24 00:53:51;;;;;;;23.97;12.90;;;;;;;22.12;75.34;100172.69;5114389;28;20070;-73
2021/06/24 00:56:26;;;;;;;33.30;13.68;;;;;;;22.07;75.18;100169.72;5132821;28;20115;-74
2021/06/24 00:58:52;;;;;;;35.20;13.70;;;;;;;22.01;75.68;100178.50;5114317;28;20039;-77
2021/06/24 01:01:18;;;;;;;33.00;13.70;;;;;;;21.95;75.76;100177.38;5131437;28;20047;-73
2021/06/24 01:03:44;;;;;;;28.10;13.98;;;;;;;21.92;75.64;100183.13;5131564;28;20046;-74
2021/06/24 01:06:10;;;;;;;34.50;14.50;;;;;;;21.91;75.94;100180.63;5133108;27;20088;-74
2021/06/24 01:08:36;;;;;;;32.58;13.90;;;;;;;21.89;75.99;100188.03;5132436;28;20042;-72
2021/06/24 01:11:06;;;;;;;31.33;14.02;;;;;;;21.91;75.88;100186.00;5131337;28;20046;-73
2021/06/24 01:13:33;;;;;;;19.65;12.90;;;;;;;21.93;75.55;100183.94;5130897;28;20114;-73
2021/06/24 01:15:59;;;;;;;33.78;13.57;;;;;;;21.94;75.98;100183.78;5131090;28;20450;-72
2021/06/24 01:18:26;;;;;;;28.90;14.65;;;;;;;21.99;75.77;100188.63;5127624;28;20043;-73
2021/06/24 01:20:51;;;;;;;28.35;13.50;;;;;;;22.01;75.56;100194.69;5109042;28;20039;-73
2021/06/24 01:23:18;;;;;;;29.88;13.57;;;;;;;22.01;75.73;100191.13;5093488;28;20089;-72
2021/06/24 01:25:44;;;;;;;24.15;12.65;;;;;;;22.04;75.69;100186.22;5093297;28;20051;-73
2021/06/24 01:28:11;;;;;;;27.83;14.10;;;;;;;22.07;75.18;100190.41;5093622;28;20136;-72
2021/06/24 01:30:41;;;;;;;31.75;14.20;;;;;;;22.09;75.18;100188.38;5111443;28;20039;-75
2021/06/24 01:33:08;;;;;;;31.05;14.50;;;;;;;22.09;74.90;100181.16;5114476;28;20051;-73
2021/06/24 01:35:35;;;;;;;25.83;12.88;;;;;;;22.13;74.84;100190.53;5096723;28;20454;-72
2021/06/24 01:38:05;;;;;;;33.63;14.75;;;;;;;22.11;74.50;100184.47;5080180;28;20039;-74
2021/06/24 01:40:32;;;;;;;30.63;13.55;;;;;;;22.17;74.66;100190.16;5115075;28;20476;-72
2021/06/24 01:42:59;;;;;;;36.10;13.70;;;;;;;22.20;73.98;100189.81;5097023;28;20061;-73
2021/06/24 01:45:26;;;;;;;30.13;14.03;;;;;;;22.21;73.86;100186.09;5135215;27;20506;-72
2021/06/24 01:47:53;;;;;;;32.90;15.13;;;;;;;22.24;73.54;100191.09;5136024;27;20281;-71
2021/06/24 01:50:19;;;;;;;28.98;13.75;;;;;;;22.26;73.39;100189.09;5134507;27;20533;-72
2021/06/24 01:52:46;;;;;;;26.20;13.25;;;;;;;22.29;73.49;100186.88;5134214;27;20496;-73
2021/06/24 01:55:16;;;;;;;30.27;14.23;;;;;;;22.27;74.35;100193.47;5134489;27;20521;-73
2021/06/24 01:57:54;;;;;;;32.53;14.98;;;;;;;22.20;74.64;100192.50;5134258;27;20137;-73
2021/06/24 02:00:55;;;;;;;25.67;13.52;;;;;;;22.22;74.68;100187.75;5132687;27;20039;-73
2021/06/24 02:03:23;;;;;;;30.65;13.52;;;;;;;22.26;74.39;100189.91;5099410;27;20082;-73
2021/06/24 02:05:55;;;;;;;30.90;13.55;;;;;;;22.30;74.33;100196.59;5134409;27;20525;-75
2021/06/24 02:08:26;;;;;;;33.33;13.63;;;;;;;22.35;73.97;100197.94;5099777;27;20564;-73
2021/06/24 02:11:24;;;;;;;21.80;13.25;;;;;;;22.37;73.98;100202.16;5071135;28;20056;-74
2021/06/24 02:13:58;;;;;;;23.90;14.23;;;;;;;22.40;72.98;100190.16;5071535;28;20135;-74
2021/06/24 02:16:25;;;;;;;22.75;13.40;;;;;;;22.44;72.37;100200.41;5071530;28;20052;-73
2021/06/24 02:18:54;;;;;;;27.98;13.68;;;;;;;22.49;71.65;100193.59;5055407;28;20044;-73
2021/06/24 02:21:38;;;;;;;26.88;13.73;;;;;;;22.55;71.58;100188.31;5054251;28;20180;-73
2021/06/24 02:24:07;;;;;;;26.95;13.68;;;;;;;22.62;71.93;100186.56;5071460;28;20044;-72
2021/06/24 02:26:44;;;;;;;32.63;13.68;;;;;;;22.68;71.88;100190.38;5071338;28;20044;-71
2021/06/24 02:29:23;;;;;;;30.67;13.50;;;;;;;22.73;72.11;100187.97;5054811;28;20106;-73
2021/06/24 02:31:50;;;;;;;29.48;13.80;;;;;;;22.77;72.23;100196.53;5054535;28;20044;-72
2021/06/24 02:34:38;;;;;;;27.40;12.38;;;;;;;22.83;72.06;100197.63;5054235;28;20514;-73
2021/06/24 02:37:15;;;;;;;25.27;12.93;;;;;;;22.87;72.28;100201.66;5039262;28;20044;-73
2021/06/24 02:39:59;;;;;;;25.10;12.70;;;;;;;22.89;72.22;100202.28;5071037;28;20110;-75
2021/06/24 02:42:29;;;;;;;24.08;13.05;;;;;;;22.96;72.27;100208.59;5053331;28;20057;-72
2021/06/24 02:44:56;;;;;;;25.88;14.48;;;;;;;23.01;71.98;100203.47;5050002;28;20044;-73
2021/06/24 02:47:22;;;;;;;28.20;13.15;;;;;;;23.09;72.03;100206.09;5104087;27;20050;-71
2021/06/24 02:49:48;;;;;;;24.00;12.57;;;;;;;23.15;72.04;100198.28;5105075;28;20043;-73
2021/06/24 02:52:16;;;;;;;26.50;13.43;;;;;;;23.14;72.37;100196.59;5102613;27;20038;-71
2021/06/24 02:54:44;;;;;;;29.55;13.95;;;;;;;23.22;71.79;100193.84;5099056;27;20212;-73
2021/06/24 02:57:11;;;;;;;28.33;13.73;;;;;;;23.31;71.27;100187.28;5126221;27;20065;-73
2021/06/24 02:59:55;;;;;;;27.42;14.65;;;;;;;23.42;70.27;100188.66;5117955;27;20093;-73
2021/06/24 03:02:21;;;;;;;23.20;14.35;;;;;;;23.48;69.22;100182.50;5127470;27;20044;-72
2021/06/24 03:04:47;;;;;;;33.35;15.20;;;;;;;23.53;68.19;100179.25;5115911;27;20139;-76
2021/06/24 03:07:13;;;;;;;31.38;14.65;;;;;;;23.63;68.10;100179.75;5130679;27;20508;-72
2021/06/24 03:09:57;;;;;;;28.45;15.02;;;;;;;23.71;67.02;100184.19;5113472;27;20088;-71
2021/06/24 03:12:24;;;;;;;27.48;14.80;;;;;;;23.76;67.11;100181.75;5103969;27;20082;-73
2021/06/24 03:14:50;;;;;;;32.08;14.52;;;;;;;23.90;66.90;100186.25;5098604;28;20043;-72
2021/06/24 03:17:16;;;;;;;32.00;15.32;;;;;;;24.00;66.36;100191.38;5113226;28;20392;-74
2021/06/24 03:19:42;;;;;;;25.60;14.63;;;;;;;24.12;66.49;100188.97;5113083;28;20051;-71
2021/06/24 03:22:10;;;;;;;29.40;14.13;;;;;;;24.23;67.67;100193.03;5094775;28;20043;-73
2021/06/24 03:24:50;;;;;;;27.70;15.45;;;;;;;24.28;67.91;100193.28;5113000;28;20043;-73
2021/06/24 03:27:17;;;;;;;30.13;14.88;;;;;;;24.38;67.77;100191.06;5094624;28;20051;-73
2021/06/24 03:30:11;;;;;;;28.17;13.95;;;;;;;24.52;67.04;100189.31;5093967;28;20096;-77
2021/06/24 03:32:37;;;;;;;26.92;15.18;;;;;;;24.62;66.96;100190.81;5113415;28;20075;-72
2021/06/24 03:35:03;;;;;;;30.48;15.73;;;;;;;24.66;66.97;100189.41;5095132;28;20527;-77
2021/06/24 03:37:31;;;;;;;29.27;15.60;;;;;;;24.73;67.02;100184.88;5094909;28;20046;-73
2021/06/24 03:39:57;;;;;;;25.42;14.85;;;;;;;24.80;66.65;100182.19;5094402;28;20043;-72
2021/06/24 03:42:24;;;;;;;28.17;13.68;;;;;;;24.92;65.50;100188.72;5077398;28;20051;-72
2021/06/24 03:44:51;;;;;;;30.75;15.02;;;;;;;25.03;64.94;100185.47;5094539;28;20054;-77
2021/06/24 03:47:17;;;;;;;32.30;14.73;;;;;;;25.16;64.49;100181.13;5094887;28;20043;-74
2021/06/24 03:49:42;;;;;;;33.25;16.02;;;;;;;25.31;64.39;100184.53;5113064;28;20045;-74
2021/06/24 03:52:09;;;;;;;27.77;14.50;;;;;;;25.41;64.55;100170.63;5077177;28;20056;-74
2021/06/24 03:54:36;;;;;;;26.80;14.65;;;;;;;25.60;63.63;100177.13;5094274;28;20188;-73
2021/06/24 03:57:04;;;;;;;29.90;14.27;;;;;;;26.70;61.29;100170.47;5093618;28;20052;-73
2021/06/24 03:59:40;;;;;;;24.48;13.32;;;;;;;28.41;56.37;100177.28;5094189;28;20488;-73
2021/06/24 04:02:06;;;;;;;26.98;13.32;;;;;;;29.78;52.80;100169.75;5094320;28;20054;-73
2021/06/24 04:04:32;;;;;;;25.35;13.57;;;;;;;30.78;49.89;100161.78;5094468;28;20047;-74
2021/06/24 04:06:59;;;;;;;26.33;13.47;;;;;;;31.73;47.62;100169.69;5094465;28;20071;-72
2021/06/24 04:09:25;;;;;;;30.70;15.82;;;;;;;32.13;45.79;100164.28;5094438;28;20496;-73
2021/06/24 04:11:51;;;;;;;27.33;14.70;;;;;;;32.66;45.05;100167.56;5100912;27;20040;-75
2021/06/24 04:14:36;;;;;;;26.48;14.35;;;;;;;33.62;43.34;100163.50;5086765;27;20088;-76
2021/06/24 04:17:21;;;;;;;26.58;13.57;;;;;;;34.28;41.47;100158.81;5108701;28;20039;-72
2021/06/24 04:19:51;;;;;;;22.70;12.65;;;;;;;35.02;40.07;100169.94;5102807;28;20495;-74
2021/06/24 04:22:17;;;;;;;23.07;12.47;;;;;;;35.62;39.11;100165.72;5096500;28;20074;-75
2021/06/24 04:25:14;;;;;;;23.80;13.40;;;;;;;36.12;37.16;100162.44;5094336;28;20060;-72
2021/06/24 04:27:42;;;;;;;29.20;13.45;;;;;;;36.23;36.46;100163.25;5112184;28;20130;-74
2021/06/24 04:30:09;;;;;;;28.40;13.38;;;;;;;36.23;36.36;100158.56;5112169;28;20043;-75
2021/06/24 04:32:39;;;;;;;26.10;12.55;;;;;;;36.62;36.15;100170.06;5077405;28;20047;-73
2021/06/24 04:35:05;;;;;;;22.53;11.47;;;;;;;37.17;35.39;100159.09;5094748;28;20484;-74
2021/06/24 04:37:33;;;;;;;20.77;10.55;;;;;;;37.99;33.83;100153.00;5094159;28;20047;-75
2021/06/24 04:39:59;;;;;;;20.58;10.05;;;;;;;38.86;32.28;100146.84;5112204;28;20043;-73
2021/06/24 04:42:32;;;;;;;25.33;11.25;;;;;;;39.30;31.54;100148.47;5093370;28;20074;-72
2021/06/24 04:45:13;;;;;;;17.27;9.05;;;;;;;39.27;30.11;100151.84;5093833;28;20108;-76
2021/06/24 04:48:02;;;;;;;19.77;9.02;;;;;;;39.61;29.71;100145.22;5111449;28;20535;-75
2021/06/24 04:50:29;;;;;;;21.90;9.02;;;;;;;39.90;28.79;100155.28;5111935;28;20122;-73
2021/06/24 04:52:56;;;;;;;19.95;9.23;;;;;;;39.75;29.00;100157.19;5093437;28;20484;-72
2021/06/24 04:55:42;;;;;;;21.38;9.05;;;;;;;40.05;28.61;100149.44;5082285;28;20115;-72
2021/06/24 04:58:17;;;;;;;18.65;8.85;;;;;;;40.58;28.45;100155.72;5094093;28;20515;-76
2021/06/24 05:01:01;;;;;;;19.65;8.77;;;;;;;40.91;27.69;100158.34;5112210;28;20047;-77
2021/06/24 05:03:45;;;;;;;24.73;9.25;;;;;;;40.76;28.17;100162.28;5111938;28;20056;-74
2021/06/24 05:06:12;;;;;;;20.48;9.63;;;;;;;41.04;28.28;100168.63;5111660;28;20047;-73
2021/06/24 05:08:38;;;;;;;15.80;8.50;;;;;;;41.43;26.92;100157.25;5097223;28;20065;-76
2021/06/24 05:11:05;;;;;;;15.02;8.00;;;;;;;41.65;26.92;100159.19;5115708;28;20496;-75
2021/06/24 05:13:31;;;;;;;17.50;7.68;;;;;;;42.42;26.38;100164.72;5097669;28;20050;-75
2021/06/24 05:15:57;;;;;;;19.90;8.80;;;;;;;42.68;25.15;100162.84;5115623;28;20046;-77
2021/06/24 05:18:23;;;;;;;16.58;8.85;;;;;;;42.33;25.14;100168.28;5115894;28;20035;-78
2021/06/24 05:20:49;;;;;;;17.33;8.50;;;;;;;41.90;25.59;100165.25;5097672;28;20047;-76
2021/06/24 05:23:15;;;;;;;;;;;;;;;42.38;24.98;100166.50;5097629;28;20134;-73
2021/06/24 05:25:42;;;;;;;19.15;7.80;;;;;;;42.97;24.22;100158.66;5115688;28;19980;-77
2021/06/24 05:28:09;;;;;;;19.67;7.00;;;;;;;42.59;24.38;100153.63;5097524;28;20047;-75
2021/06/24 05:30:35;;;;;;;15.35;7.15;;;;;;;43.23;22.84;100155.13;5097515;28;20063;-75
2021/06/24 05:33:01;;;;;;;20.42;8.00;;;;;;;43.48;23.21;100155.41;5115821;28;20044;-74
2021/06/24 05:35:27;;;;;;;17.55;7.97;;;;;;;44.24;22.30;100147.56;5097668;28;20047;-75
2021/06/24 05:37:54;;;;;;;21.17;7.85;;;;;;;44.28;22.44;100148.53;5115262;28;20079;-77
2021/06/24 05:40:22;;;;;;;15.48;6.80;;;;;;;44.16;21.67;100146.44;5115667;28;20043;-75
2021/06/24 05:42:48;;;;;;;14.93;6.68;;;;;;;44.60;21.10;100146.25;5115401;28;20055;-79
2021/06/24 05:45:14;;;;;;;12.07;6.43;;;;;;;45.26;20.76;100146.81;5130771;27;20043;-76
2021/06/24 05:47:46;;;;;;;18.27;6.72;;;;;;;45.62;19.77;100142.56;5118136;27;20408;-82
2021/06/24 05:50:13;;;;;;;11.65;5.88;;;;;;;45.42;19.81;100141.41;5135909;27;20074;-77
2021/06/24 05:52:39;;;;;;;13.65;6.20;;;;;;;45.78;19.65;100134.34;5135186;27;20047;-79
2021/06/24 05:55:05;;;;;;;14.80;6.75;;;;;;;45.48;19.80;100138.06;5135604;27;20508;-77
2021/06/24 05:57:32;;;;;;;9.68;6.00;;;;;;;46.02;19.44;100139.16;5134517;27;20035;-77
2021/06/24 06:00:02;;;;;;;16.20;5.75;;;;;;;46.87;18.60;100130.31;5117369;27;20061;-77
2021/06/24 06:02:28;;;;;;;11.10;4.97;;;;;;;47.30;17.01;100123.97;5135698;27;20502;-76
2021/06/24 06:04:54;;;;;;;12.65;5.35;;;;;;;46.91;17.32;100134.00;5135267;27;20043;-78
2021/06/24 06:07:23;;;;;;;11.77;5.22;;;;;;;45.82;17.85;100132.47;5134414;27;20046;-78
2021/06/24 06:09:52;;;;;;;17.98;9.43;;;;;;;45.45;18.23;100144.34;5133974;27;20039;-76
2021/06/24 06:12:18;;;;;;;11.73;4.30;;;;;;;46.10;17.49;100134.63;5117466;27;20108;-77
2021/06/24 06:14:43;;;;;;;12.68;5.13;;;;;;;45.86;17.13;100139.00;5135341;27;20432;-83
2021/06/24 06:17:09;;;;;;;16.45;4.72;;;;;;;44.75;18.24;100142.91;5117119;27;20043;-78
2021/06/24 06:19:35;;;;;;;15.52;4.72;;;;;;;44.83;18.53;100124.47;5134552;27;20126;-75
2021/06/24 06:22:01;;;;;;;13.05;5.38;;;;;;;46.01;17.52;100134.72;5133755;27;20088;-77
2021/06/24 06:24:27;;;;;;;16.10;4.65;;;;;;;47.37;15.93;100134.59;5135425;27;20039;-80
2021/06/24 06:26:55;;;;;;;13.15;4.22;;;;;;;47.62;15.70;100126.06;5135305;27;20042;-75
2021/06/24 06:29:21;;;;;;;13.05;4.20;;;;;;;46.16;16.09;100133.22;5134207;27;20380;-75
2021/06/24 06:31:47;;;;;;;6.93;3.53;;;;;;;47.22;15.98;100130.56;5135062;27;20047;-78
2021/06/24 06:34:13;;;;;;;10.32;4.13;;;;;;;47.01;15.80;100127.09;5133403;27;20043;-79
2021/06/24 06:36:39;;;;;;;11.38;3.83;;;;;;;46.31;16.09;100126.16;5116503;27;20039;-77
2021/06/24 06:39:05;;;;;;;12.68;4.03;;;;;;;45.58;16.45;100125.66;5134008;27;20047;-79
2021/06/24 06:41:31;;;;;;;12.15;4.13;;;;;;;45.13;17.27;100132.75;5134149;27;20051;-78
2021/06/24 06:43:57;;;;;;;10.48;4.32;;;;;;;44.87;17.85;100135.78;5133788;27;20073;-79
2021/06/24 06:46:23;;;;;;;13.40;5.05;;;;;;;44.90;18.33;100127.53;5116203;27;20471;-77
2021/06/24 06:48:49;;;;;;;12.85;4.90;;;;;;;45.24;18.44;100130.41;5133261;27;20041;-76
2021/06/24 06:51:15;;;;;;;11.45;4.22;;;;;;;43.58;19.66;100130.03;5133633;27;20047;-78
2021/06/24 06:53:41;;;;;;;14.57;5.25;;;;;;;43.84;19.62;100131.94;5134502;27;20111;-78
2021/06/24 06:56:07;;;;;;;12.05;4.85;;;;;;;44.52;18.88;100131.19;5135092;27;20535;-77
2021/06/24 06:58:33;;;;;;;10.93;4.78;;;;;;;44.96;18.16;100124.53;5134981;27;20038;-78
2021/06/24 07:00:59;;;;;;;13.65;3.60;;;;;;;44.95;17.44;100126.50;5134801;27;20043;-80
2021/06/24 07:03:29;;;;;;;14.05;3.58;;;;;;;45.27;16.82;100120.53;5133809;27;20082;-78
2021/06/24 07:05:55;;;;;;;13.05;3.88;;;;;;;45.64;16.78;100121.47;5133015;27;20247;-81
2021/06/24 07:08:21;;;;;;;10.70;3.80;;;;;;;46.61;15.59;100125.88;5134803;27;20432;-77
2021/06/24 07:10:46;;;;;;;10.93;3.65;;;;;;;47.78;14.89;100123.25;5134980;27;20091;-78
2021/06/24 07:13:12;;;;;;;8.00;3.50;;;;;;;47.91;14.58;100119.25;5116408;27;20042;-76
2021/06/24 07:15:38;;;;;;;12.60;3.90;;;;;;;46.88;15.23;100123.53;5134516;27;20047;-77
2021/06/24 07:18:04;;;;;;;14.23;4.32;;;;;;;46.61;15.62;100118.31;5133034;27;20433;-78
2021/06/24 07:20:31;;;;;;;12.15;4.95;;;;;;;46.65;15.82;100126.81;5116554;27;20082;-81
2021/06/24 07:22:58;;;;;;;11.55;3.95;;;;;;;46.06;15.12;100117.72;5133412;27;20551;-79
2021/06/24 07:25:24;;;;;;;10.10;4.10;;;;;;;47.41;14.54;100110.28;5116339;27;20045;-83
2021/06/24 07:27:51;;;;;;;16.58;3.95;;;;;;;47.63;14.28;100114.50;5082890;27;20389;-80
2021/06/24 07:30:18;;;;;;;12.77;4.43;;;;;;;47.39;14.46;100112.59;5116894;27;20067;-79
2021/06/24 07:32:44;;;;;;;12.55;4.07;;;;;;;47.58;14.16;100116.75;5134888;27;20126;-83
2021/06/24 07:35:11;;;;;;;7.40;3.90;;;;;;;48.76;13.49;100112.44;5133227;27;20035;-80
2021/06/24 07:37:37;;;;;;;15.68;4.10;;;;;;;48.04;13.83;100111.53;5133961;27;20118;-78
2021/06/24 07:40:04;;;;;;;10.60;3.92;;;;;;;48.29;13.80;100111.34;5133444;27;20039;-80
2021/06/24 07:42:30;;;;;;;11.70;4.18;;;;;;;47.49;15.10;100104.91;5132596;27;20158;-79
2021/06/24 07:44:56;;;;;;;13.23;4.53;;;;;;;47.33;14.73;100105.63;5133923;27;20459;-77
2021/06/24 07:47:22;;;;;;;8.95;4.30;;;;;;;46.17;14.94;100113.31;5081973;27;20039;-76
2021/06/24 07:49:48;;;;;;;14.38;4.10;;;;;;;47.31;14.19;100103.19;5082170;27;20519;-79
2021/06/24 07:52:14;;;;;;;11.32;4.10;;;;;;;48.54;13.61;100099.88;5134077;27;20039;-80
2021/06/24 07:54:40;;;;;;;11.45;4.22;;;;;;;49.42;12.37;100098.56;5134570;27;20043;-80
2021/06/24 07:57:07;;;;;;;10.75;4.50;;;;;;;48.10;13.56;100098.06;5133895;27;20046;-79
2021/06/24 07:59:34;;;;;;;12.52;4.20;;;;;;;47.11;14.21;100095.81;5115312;27;20536;-78
2021/06/24 08:02:00;;;;;;;11.40;4.47;;;;;;;46.61;15.02;100100.69;5115760;27;20550;-77
2021/06/24 08:04:26;;;;;;;10.25;4.10;;;;;;;46.71;14.94;100097.44;5115213;27;20043;-79
2021/06/24 08:06:52;;;;;;;14.23;4.72;;;;;;;46.75;15.19;100095.56;5133543;27;20492;-75
2021/06/24 08:09:18;;;;;;;13.93;4.68;;;;;;;46.88;15.32;100084.34;5115183;27;20043;-79
2021/06/24 08:11:44;;;;;;;13.73;4.82;;;;;;;47.52;14.73;100084.53;5115342;27;20043;-76
2021/06/24 08:14:10;;;;;;;11.38;4.32;;;;;;;48.38;14.32;100081.09;5098141;27;20043;-81
2021/06/24 08:16:36;;;;;;;12.00;5.15;;;;;;;47.36;14.69;100084.47;5133524;27;20038;-79
2021/06/24 08:19:04;;;;;;;17.80;4.78;;;;;;;46.61;15.86;100076.34;5115335;27;20167;-77
2021/06/24 08:21:31;;;;;;;11.90;4.55;;;;;;;46.93;15.27;100070.88;5133291;27;20480;-82
2021/06/24 08:23:56;;;;;;;13.07;4.07;;;;;;;47.21;14.87;100080.47;5081308;28;20038;-81
2021/06/24 08:26:22;;;;;;;12.57;4.45;;;;;;;47.10;14.63;100081.00;5114910;27;20519;-77
2021/06/24 08:28:48;;;;;;;12.50;4.70;;;;;;;46.50;15.40;100087.19;5114638;27;20046;-81
2021/06/24 08:31:14;;;;;;;15.18;5.55;;;;;;;45.94;15.46;100075.75;5097981;27;20039;-80
2021/06/24 08:33:41;;;;;;;18.52;6.18;;;;;;;46.37;15.15;100079.97;5114415;27;20039;-82
2021/06/24 08:36:07;;;;;;;13.00;4.85;;;;;;;46.87;15.48;100077.09;5115006;28;20043;-76
2021/06/24 08:38:33;;;;;;;12.45;5.43;;;;;;;46.13;15.64;100078.81;5114732;28;20452;-76
2021/06/24 08:40:59;;;;;;;12.38;4.95;;;;;;;45.61;16.15;100080.25;5133161;27;20077;-74
2021/06/24 08:43:25;;;;;;;13.50;5.68;;;;;;;45.25;16.58;100087.31;5118049;27;20427;-79
2021/06/24 08:45:56;;;;;;;11.80;5.45;;;;;;;46.21;15.94;100085.44;5136478;27;20043;-79
2021/06/24 08:48:25;;;;;;;20.52;7.68;;;;;;;47.46;15.13;100082.00;5102268;27;20443;-79
2021/06/24 08:50:51;;;;;;;14.90;4.90;;;;;;;46.66;15.32;100083.66;5137376;27;20100;-80
2021/06/24 08:53:18;;;;;;;18.08;5.55;;;;;;;47.37;14.94;100078.53;5137487;27;20047;-84
2021/06/24 08:55:46;;;;;;;14.65;5.30;;;;;;;46.80;15.38;100089.72;5135692;27;20035;-81
2021/06/24 08:58:13;;;;;;;12.30;4.65;;;;;;;46.98;15.21;100072.63;5137558;27;20047;-75
2021/06/24 09:00:39;;;;;;;8.48;4.30;;;;;;;47.41;14.90;100081.41;5137100;27;20080;-80
2021/06/24 09:03:21;;;;;;;13.25;5.20;;;;;;;46.70;14.89;100083.78;5136248;27;20427;-79
2021/06/24 09:05:55;;;;;;;11.52;5.50;;;;;;;45.92;16.12;100086.47;5135648;27;20042;-77
2021/06/24 09:08:45;;;;;;;19.67;5.45;;;;;;;45.31;16.45;100076.78;5136346;27;20055;-78
2021/06/24 09:11:25;;;;;;;13.77;6.60;;;;;;;45.29;16.50;100067.91;5137112;27;20051;-83
2021/06/24 09:14:00;;;;;;;21.98;10.10;;;;;;;46.67;15.66;100066.53;5135296;27;20440;-78
2021/06/24 09:16:31;;;;;;;8.43;4.90;;;;;;;46.55;15.92;100071.31;5137183;27;20069;-80
2021/06/24 09:19:15;;;;;;;13.10;4.20;;;;;;;46.62;15.58;100074.34;5136883;27;20035;-78
2021/06/24 09:22:02;;;;;;;15.45;5.18;;;;;;;47.08;15.47;100066.53;5135886;27;20624;-78
2021/06/24 09:24:36;;;;;;;14.43;4.72;;;;;;;45.62;15.73;100065.09;5135635;27;20039;-81
2021/06/24 09:27:26;;;;;;;13.82;4.82;;;;;;;44.81;16.89;100070.94;5118623;27;20050;-80
2021/06/24 09:30:09;;;;;;;12.32;5.05;;;;;;;44.15;17.34;100072.31;5135205;27;20046;-80
2021/06/24 09:32:42;;;;;;;18.45;5.40;;;;;;;44.17;17.53;100067.22;5135790;27;20142;-79
2021/06/24 09:35:19;;;;;;;9.98;4.82;;;;;;;44.39;17.14;100059.72;5136689;27;20035;-77
2021/06/24 09:38:08;;;;;;;11.70;5.05;;;;;;;44.24;17.18;100059.16;5135024;27;20508;-79
2021/06/24 09:40:49;;;;;;;11.63;4.93;;;;;;;44.08;17.18;100055.28;5136377;27;20047;-78
2021/06/24 09:43:14;;;;;;;10.88;4.45;;;;;;;44.43;17.19;100049.53;5135012;27;20055;-77
2021/06/24 09:45:41;;;;;;;13.23;4.60;;;;;;;44.47;17.03;100047.69;5136197;27;20125;-77
2021/06/24 09:48:11;;;;;;;10.73;4.70;;;;;;;44.18;17.14;100057.69;5118080;27;20407;-78
2021/06/24 09:50:39;;;;;;;9.10;4.65;;;;;;;43.92;17.56;100053.03;5136429;27;20031;-85
2021/06/24 09:53:12;;;;;;;14.13;4.18;;;;;;;43.65;17.43;100043.16;5117579;27;20047;-81
2021/06/24 09:55:39;;;;;;;9.57;4.22;;;;;;;43.78;17.67;100053.28;5136190;27;20556;-76
2021/06/24 09:58:15;;;;;;;15.38;4.57;;;;;;;43.22;17.94;100058.81;5136453;27;20039;-84
2021/06/24 10:00:55;;;;;;;10.50;4.40;;;;;;;42.32;18.37;100051.81;5135515;27;20069;-80
2021/06/24 10:03:22;;;;;;;12.95;4.45;;;;;;;42.28;18.17;100050.84;5100827;27;20046;-81
2021/06/24 10:05:49;;;;;;;10.40;4.18;;;;;;;42.56;18.06;100054.16;5099876;27;20035;-82
2021/06/24 10:08:15;;;;;;;10.27;4.85;;;;;;;42.65;18.23;100049.41;5135831;27;20080;-81
2021/06/24 10:10:43;;;;;;;12.05;5.70;;;;;;;42.69;18.38;100052.38;5117824;27;20134;-81
2021/06/24 10:13:11;;;;;;;8.88;4.75;;;;;;;42.06;18.81;100046.16;5083792;27;20502;-82
2021/06/24 10:15:37;;;;;;;14.40;4.82;;;;;;;42.07;19.25;100042.25;5135806;27;20499;-79
2021/06/24 10:18:03;;;;;;;7.95;4.22;;;;;;;41.70;19.09;100051.53;5135408;27;20130;-78
2021/06/24 10:20:31;;;;;;;10.90;4.05;;;;;;;41.45;19.16;100055.81;5135650;27;20051;-81
2021/06/24 10:23:01;;;;;;;13.55;4.50;;;;;;;41.32;19.35;100057.50;5135685;27;20142;-80
2021/06/24 10:25:27;;;;;;;8.45;4.10;;;;;;;41.84;18.92;100061.75;5135287;27;20088;-77
2021/06/24 10:27:55;;;;;;;11.30;4.40;;;;;;;41.28;19.29;100062.03;5117123;27;20084;-80
2021/06/24 10:30:22;;;;;;;7.70;4.28;;;;;;;40.71;19.06;100046.69;5117189;27;20039;-81
2021/06/24 10:33:01;;;;;;;8.68;3.42;;;;;;;40.26;19.07;100054.88;5117908;27;20043;-79
2021/06/24 10:35:32;;;;;;;9.45;3.70;;;;;;;40.81;18.92;100053.16;5083346;27;20129;-77
2021/06/24 10:38:05;;;;;;;12.95;4.32;;;;;;;41.02;18.91;100053.53;5117098;27;20043;-81
2021/06/24 10:40:36;;;;;;;14.07;4.85;;;;;;;40.95;19.43;100051.16;5118023;27;20097;-80
2021/06/24 10:43:13;;;;;;;12.07;3.95;;;;;;;41.07;19.18;100051.44;5135336;27;20051;-80
2021/06/24 10:45:43;;;;;;;9.23;4.65;;;;;;;40.69;19.66;100051.75;5101362;27;20411;-81
2021/06/24 10:48:29;;;;;;;9.77;4.18;;;;;;;40.70;19.70;100047.00;5136783;27;20523;-82
2021/06/24 10:51:03;;;;;;;6.65;4.25;;;;;;;40.57;19.61;100048.69;5117416;27;20256;-80
2021/06/24 10:53:29;;;;;;;10.77;4.70;;;;;;;39.85;20.94;100045.38;5135350;27;20381;-77
2021/06/24 10:55:55;;;;;;;10.98;4.82;;;;;;;39.36;21.58;100050.41;5117531;27;20054;-78
2021/06/24 10:58:23;;;;;;;11.00;5.38;;;;;;;39.36;21.73;100044.03;5100192;27;20487;-79
2021/06/24 11:00:50;;;;;;;13.73;5.45;;;;;;;39.38;22.20;100033.47;5135384;27;20039;-79
2021/06/24 11:03:17;;;;;;;7.85;4.63;;;;;;;38.70;23.18;100039.19;5135072;27;20051;-77
2021/06/24 11:05:48;;;;;;;8.82;4.97;;;;;;;38.40;23.35;100034.91;5116455;27;20495;-76
2021/06/24 11:08:19;;;;;;;7.32;4.97;;;;;;;38.61;23.40;100035.44;5135183;27;20163;-78
2021/06/24 11:10:57;;;;;;;11.05;4.78;;;;;;;38.95;23.61;100028.91;5099948;27;20050;-78
2021/06/24 11:16:10;;;;;;;9.13;4.85;;;;;;;39.18;22.92;100026.31;5099670;27;20043;-77
2021/06/24 11:18:39;;;;;;;11.75;4.88;;;;;;;39.02;22.95;100028.50;5116542;27;20427;-77
2021/06/24 11:21:09;;;;;;;12.63;5.43;;;;;;;38.96;22.90;100030.53;5135190;27;20043;-77
2021/06/24 11:23:41;;;;;;;9.18;4.63;;;;;;;38.34;23.46;100037.72;5116823;27;20373;-77
2021/06/24 11:26:11;;;;;;;8.02;5.22;;;;;;;38.16;23.26;100036.53;5099453;27;20035;-79